createdAt,value
2022-07-29T00:02:27.136Z,21.62
2022-07-29T00:04:54.095Z,21.39
2022-07-29T00:07:21.410Z,21.19
2022-07-29T00:09:51.262Z,21.65
2022-07-29T00:12:21.391Z,21.98
2022-07-29T00:14:55.271Z,21.98
2022-07-29T00:17:22.503Z,22.03
2022-07-29T00:19:49.166Z,22.40
2022-07-29T00:22:15.930Z,22.42
2022-07-29T00:24:42.653Z,22.84
2022-07-29T00:27:09.359Z,22.70
2022-07-29T00:29:36.051Z,22.91
2022-07-29T00:32:03.677Z,22.50
2022-07-29T00:34:49.756Z,22.75
2022-07-29T00:37:16.548Z,21.92
2022-07-29T00:39:43.766Z,22.18
2022-07-29T00:42:10.877Z,22.40
2022-07-29T00:44:41.865Z,22.68
2022-07-29T00:47:09.540Z,22.56
2022-07-29T00:49:36.918Z,22.25
2022-07-29T00:52:08.034Z,22.32
2022-07-29T00:54:39.129Z,22.81
2022-07-29T00:57:12.483Z,22.60
2022-07-29T00:59:39.266Z,22.71
2022-07-29T01:02:06.216Z,22.08
2022-07-29T01:04:33.351Z,22.07
2022-07-29T01:07:02.619Z,21.87
2022-07-29T01:09:34.326Z,22.12
2022-07-29T01:12:10.168Z,22.42
2022-07-29T01:14:38.594Z,22.66
2022-07-29T01:17:37.825Z,22.77
2022-07-29T01:20:13.620Z,22.79
2022-07-29T01:23:01.217Z,22.82
2022-07-29T01:25:56.308Z,22.72
2022-07-29T01:28:45.620Z,22.71
2022-07-29T01:31:21.181Z,22.24
2022-07-29T01:34:07.199Z,21.83
2022-07-29T01:36:38.517Z,22.01
2022-07-29T01:39:12.483Z,21.88
2022-07-29T01:41:46.051Z,21.43
2022-07-29T01:44:30.200Z,20.69
2022-07-29T01:47:02.840Z,20.72
2022-07-29T01:49:35.213Z,20.81
2022-07-29T01:52:19.924Z,21.53
2022-07-29T01:54:53.261Z,21.86
2022-07-29T01:57:26.269Z,22.19
2022-07-29T01:59:54.693Z,21.92
2022-07-29T02:02:24.324Z,22.03
2022-07-29T02:04:52.647Z,22.29
2022-07-29T02:07:22.172Z,22.35
2022-07-29T02:09:51.116Z,22.61
2022-07-29T02:12:19.318Z,22.71
2022-07-29T02:14:50.155Z,22.93
2022-07-29T02:17:33.718Z,22.80
2022-07-29T02:20:02.647Z,22.90
2022-07-29T02:22:31.657Z,22.60
2022-07-29T02:24:59.851Z,21.93
2022-07-29T02:27:29.414Z,21.45
2022-07-29T02:29:59.476Z,21.19
2022-07-29T02:32:28.382Z,21.10
2022-07-29T02:34:56.770Z,21.44
2022-07-29T02:37:25.090Z,21.56
2022-07-29T02:39:54.985Z,21.71
2022-07-29T02:42:25.109Z,22.01
2022-07-29T02:44:52.509Z,22.06
2022-07-29T02:47:29.305Z,21.97
2022-07-29T02:50:04.919Z,21.85
2022-07-29T02:52:40.957Z,21.73
2022-07-29T02:55:26.056Z,21.62
2022-07-29T02:58:03.484Z,21.75
2022-07-29T03:00:32.470Z,21.91
2022-07-29T03:03:08.704Z,21.95
2022-07-29T03:05:36.284Z,22.37
2022-07-29T03:08:07.101Z,22.12
2022-07-29T03:10:35.031Z,22.42
2022-07-29T03:13:02.541Z,22.40
2022-07-29T03:15:30.042Z,22.25
2022-07-29T03:17:57.647Z,22.20
2022-07-29T03:20:24.705Z,22.46
2022-07-29T03:22:51.468Z,22.59
2022-07-29T03:25:20.023Z,22.85
2022-07-29T03:27:48.103Z,22.88
2022-07-29T03:30:21.839Z,23.03
2022-07-29T03:32:52.157Z,22.77
2022-07-29T03:35:20.492Z,22.82
2022-07-29T03:37:47.756Z,22.76
2022-07-29T03:40:23.859Z,22.76
2022-07-29T03:42:55.341Z,22.66
2022-07-29T03:45:23.164Z,21.89
2022-07-29T03:47:59.964Z,21.48
2022-07-29T03:50:29.739Z,21.54
2022-07-29T03:52:56.549Z,21.79
2022-07-29T03:55:23.400Z,21.94
2022-07-29T03:57:50.728Z,21.83
2022-07-29T04:00:17.741Z,22.12
2022-07-29T04:02:49.792Z,21.35
2022-07-29T04:05:17.562Z,21.54
2022-07-29T04:07:49.106Z,21.66
2022-07-29T04:10:17.934Z,21.78
2022-07-29T04:12:57.611Z,21.58
2022-07-29T04:15:24.372Z,21.77
2022-07-29T04:17:51.045Z,22.24
2022-07-29T04:20:18.007Z,22.39
2022-07-29T04:22:44.624Z,22.33
2022-07-29T04:25:11.350Z,22.13
2022-07-29T04:27:58.000Z,22.27
2022-07-29T04:30:24.663Z,22.49
2022-07-29T04:32:51.305Z,22.53
2022-07-29T04:35:18.026Z,22.70
2022-07-29T04:37:44.691Z,22.51
2022-07-29T04:40:11.771Z,22.17
2022-07-29T04:42:46.332Z,22.42
2022-07-29T04:45:14.278Z,22.61
2022-07-29T04:47:41.930Z,22.36
2022-07-29T04:50:09.732Z,22.53
2022-07-29T04:52:36.447Z,22.52
2022-07-29T04:55:04.492Z,22.93
2022-07-29T04:57:31.274Z,23.04
2022-07-29T04:59:57.957Z,23.11
2022-07-29T05:02:24.837Z,22.64
2022-07-29T05:04:51.503Z,22.61
2022-07-29T05:07:18.153Z,23.14
2022-07-29T05:09:44.819Z,23.41
2022-07-29T05:12:11.903Z,23.36
2022-07-29T05:14:38.684Z,23.69
2022-07-29T05:17:05.408Z,23.73
2022-07-29T05:19:32.855Z,23.45
2022-07-29T05:22:01.000Z,23.43
2022-07-29T05:24:27.768Z,23.39
2022-07-29T05:26:54.421Z,23.50
2022-07-29T05:29:42.738Z,23.96
2022-07-29T05:32:08.130Z,23.56
2022-07-29T05:34:34.914Z,23.42
2022-07-29T05:37:01.850Z,23.75
2022-07-29T05:39:47.216Z,24.18
2022-07-29T05:42:15.214Z,23.81
2022-07-29T05:44:41.893Z,24.04
2022-07-29T05:47:08.664Z,24.35
2022-07-29T05:49:35.398Z,23.92
2022-07-29T05:52:02.099Z,24.09
2022-07-29T05:54:28.895Z,24.43
2022-07-29T05:56:55.581Z,23.97
2022-07-29T05:59:24.919Z,24.27
2022-07-29T06:01:53.891Z,24.44
2022-07-29T06:04:20.953Z,23.76
2022-07-29T06:06:47.883Z,24.44
2022-07-29T06:09:14.945Z,24.58
2022-07-29T06:11:42.637Z,25.00
2022-07-29T06:14:09.565Z,24.67
2022-07-29T06:16:36.354Z,24.20
2022-07-29T06:19:03.410Z,24.12
2022-07-29T06:21:32.921Z,24.92
2022-07-29T06:23:59.578Z,25.12
2022-07-29T06:26:31.375Z,25.56
2022-07-29T06:28:58.680Z,25.60
2022-07-29T06:31:25.563Z,25.71
2022-07-29T06:33:54.595Z,25.58
2022-07-29T06:36:21.742Z,24.76
2022-07-29T06:38:52.033Z,24.90
2022-07-29T06:41:19.239Z,25.39
2022-07-29T06:43:52.265Z,24.89
2022-07-29T06:46:23.150Z,25.54
2022-07-29T06:48:51.085Z,26.21
2022-07-29T06:51:22.553Z,25.52
2022-07-29T06:54:00.373Z,25.89
2022-07-29T06:56:31.578Z,25.89
2022-07-29T06:58:58.539Z,25.47
2022-07-29T07:01:25.223Z,25.66
2022-07-29T07:03:51.905Z,25.63
2022-07-29T07:06:18.627Z,26.20
2022-07-29T07:08:45.341Z,26.49
2022-07-29T07:11:12.342Z,26.46
2022-07-29T07:13:39.023Z,26.68
2022-07-29T07:16:05.819Z,26.57
2022-07-29T07:18:32.996Z,25.72
2022-07-29T07:20:59.762Z,26.41
2022-07-29T07:23:26.492Z,26.26
2022-07-29T07:25:53.384Z,26.99
2022-07-29T07:28:24.485Z,26.71
2022-07-29T07:30:52.147Z,26.73
2022-07-29T07:33:19.041Z,26.88
2022-07-29T07:35:45.731Z,26.52
2022-07-29T07:38:12.741Z,26.98
2022-07-29T07:40:39.540Z,26.95
2022-07-29T07:43:06.271Z,27.48
2022-07-29T07:45:38.221Z,27.39
2022-07-29T07:48:05.884Z,27.68
2022-07-29T07:50:32.632Z,27.27
2022-07-29T07:52:59.353Z,26.59
2022-07-29T07:55:26.866Z,27.28
2022-07-29T07:57:53.975Z,27.53
2022-07-29T08:00:23.317Z,27.66
2022-07-29T08:02:51.448Z,27.22
2022-07-29T08:05:19.125Z,27.33
2022-07-29T08:07:48.747Z,27.30
2022-07-29T08:10:37.054Z,27.48
2022-07-29T08:13:08.183Z,27.02
2022-07-29T08:15:35.371Z,27.33
2022-07-29T08:18:08.234Z,27.58
2022-07-29T08:20:36.840Z,27.38
2022-07-29T08:23:05.405Z,27.09
2022-07-29T08:25:32.145Z,27.61
2022-07-29T08:28:01.334Z,27.35
2022-07-29T08:30:28.097Z,27.54
2022-07-29T08:32:55.657Z,27.31
2022-07-29T08:35:24.206Z,27.27
2022-07-29T08:37:51.638Z,27.33
2022-07-29T08:40:18.588Z,27.51
2022-07-29T08:42:45.293Z,28.08
2022-07-29T08:45:12.261Z,28.10
2022-07-29T08:47:43.252Z,28.03
2022-07-29T08:50:11.156Z,28.14
2022-07-29T08:52:40.902Z,28.25
2022-07-29T08:55:10.061Z,28.37
2022-07-29T08:57:39.563Z,28.61
2022-07-29T09:00:19.315Z,28.72
2022-07-29T09:02:52.845Z,28.03
2022-07-29T09:05:21.255Z,28.36
2022-07-29T09:07:49.081Z,28.84
2022-07-29T09:10:15.964Z,28.75
2022-07-29T09:12:42.851Z,28.55
2022-07-29T09:15:10.091Z,28.57
2022-07-29T09:17:46.992Z,28.43
2022-07-29T09:20:16.877Z,28.66
2022-07-29T09:22:43.624Z,29.07
2022-07-29T09:25:13.294Z,28.25
2022-07-29T09:27:40.096Z,28.35
2022-07-29T09:30:11.607Z,28.54
2022-07-29T09:32:59.329Z,28.21
2022-07-29T09:35:27.196Z,28.27
2022-07-29T09:37:54.600Z,28.59
2022-07-29T09:40:27.276Z,29.09
2022-07-29T09:42:58.135Z,29.21
2022-07-29T09:45:30.324Z,29.43
2022-07-29T09:48:01.334Z,28.90
2022-07-29T09:50:42.315Z,29.19
2022-07-29T09:53:12.436Z,29.07
2022-07-29T09:55:49.318Z,29.21
2022-07-29T09:58:20.468Z,29.37
2022-07-29T10:00:48.840Z,29.44
2022-07-29T10:03:16.732Z,29.88
2022-07-29T10:05:44.472Z,29.87
2022-07-29T10:08:16.314Z,29.66
2022-07-29T10:10:44.008Z,29.10
2022-07-29T10:13:15.710Z,29.28
2022-07-29T10:15:46.769Z,29.87
2022-07-29T10:18:18.424Z,29.98
2022-07-29T10:20:45.563Z,29.83
2022-07-29T10:23:13.683Z,29.41
2022-07-29T10:25:45.654Z,30.02
2022-07-29T10:28:16.459Z,30.06
2022-07-29T10:30:45.586Z,30.28
2022-07-29T10:33:12.845Z,30.42
2022-07-29T10:35:45.217Z,30.32
2022-07-29T10:38:30.918Z,29.90
2022-07-29T10:41:31.864Z,30.13
2022-07-29T10:44:12.357Z,30.27
2022-07-29T10:46:44.856Z,30.00
2022-07-29T10:49:15.954Z,30.32
2022-07-29T10:52:02.097Z,30.32
2022-07-29T10:54:35.875Z,30.01
2022-07-29T10:57:54.151Z,30.31
2022-07-29T11:00:19.679Z,29.95
2022-07-29T11:02:50.228Z,30.42
2022-07-29T11:05:20.236Z,30.77
2022-07-29T11:08:19.907Z,30.94
2022-07-29T11:10:49.256Z,30.15
2022-07-29T11:13:55.773Z,30.21
2022-07-29T11:16:25.229Z,30.63
2022-07-29T11:19:14.263Z,30.94
2022-07-29T11:21:53.798Z,30.21
2022-07-29T11:24:30.085Z,31.26
2022-07-29T11:27:18.271Z,31.59
2022-07-29T11:29:58.787Z,30.94
2022-07-29T11:32:40.409Z,30.88
2022-07-29T11:35:37.073Z,30.27
2022-07-29T11:38:23.413Z,30.22
2022-07-29T11:41:18.056Z,30.71
2022-07-29T11:43:54.893Z,31.03
2022-07-29T11:46:50.728Z,31.82
2022-07-29T11:49:32.660Z,32.01
2022-07-29T11:52:02.571Z,30.66
2022-07-29T11:54:57.309Z,30.77
2022-07-29T11:57:22.208Z,30.75
2022-07-29T11:59:49.231Z,30.93
2022-07-29T12:02:37.490Z,31.49
2022-07-29T12:05:10.672Z,31.32
2022-07-29T12:07:39.282Z,32.05
2022-07-29T12:10:11.331Z,31.95
2022-07-29T12:12:52.631Z,31.70
2022-07-29T12:15:22.401Z,31.02
2022-07-29T12:17:49.294Z,31.58
2022-07-29T12:20:28.421Z,31.47
2022-07-29T12:22:57.157Z,32.25
2022-07-29T12:25:34.580Z,31.46
2022-07-29T12:28:03.220Z,31.32
2022-07-29T12:30:40.097Z,31.08
2022-07-29T12:33:18.737Z,31.72
2022-07-29T12:36:06.275Z,31.48
2022-07-29T12:38:38.119Z,31.85
2022-07-29T12:41:05.230Z,31.08
2022-07-29T12:43:32.533Z,31.04
2022-07-29T12:46:12.825Z,30.77
2022-07-29T12:48:42.577Z,31.58
2022-07-29T12:51:11.154Z,31.90
2022-07-29T12:53:38.503Z,31.44
2022-07-29T12:56:20.795Z,31.67
2022-07-29T12:58:53.336Z,32.47
2022-07-29T13:01:21.145Z,31.90
2022-07-29T13:04:01.435Z,32.10
2022-07-29T13:06:51.019Z,31.22
2022-07-29T13:09:20.584Z,32.28
2022-07-29T13:11:52.962Z,32.32
2022-07-29T13:14:36.747Z,32.61
2022-07-29T13:17:06.333Z,32.94
2022-07-29T13:19:37.369Z,32.91
2022-07-29T13:22:04.506Z,30.60
2022-07-29T13:24:31.292Z,31.26
2022-07-29T13:26:58.421Z,31.15
2022-07-29T13:29:27.504Z,31.88
2022-07-29T13:31:57.212Z,31.97
2022-07-29T13:34:25.270Z,31.66
2022-07-29T13:36:51.962Z,31.91
2022-07-29T13:39:18.659Z,32.24
2022-07-29T13:41:45.450Z,32.11
2022-07-29T13:44:12.159Z,32.64
2022-07-29T13:46:40.092Z,32.57
2022-07-29T13:49:06.942Z,31.85
2022-07-29T13:51:33.702Z,30.93
2022-07-29T13:54:00.387Z,31.41
2022-07-29T13:56:27.280Z,31.49
2022-07-29T13:58:53.910Z,31.43
2022-07-29T14:01:20.728Z,31.98
2022-07-29T14:03:47.540Z,32.56
2022-07-29T14:06:14.433Z,32.68
2022-07-29T14:08:41.285Z,32.69
2022-07-29T14:11:07.973Z,32.61
2022-07-29T14:13:34.705Z,31.68
2022-07-29T14:16:01.822Z,32.12
2022-07-29T14:18:28.468Z,32.54
2022-07-29T14:20:55.138Z,32.17
2022-07-29T14:23:21.775Z,32.25
2022-07-29T14:25:49.379Z,32.51
2022-07-29T14:28:16.413Z,32.50
2022-07-29T14:30:43.359Z,32.30
2022-07-29T14:33:11.097Z,32.32
2022-07-29T14:35:37.869Z,32.78
2022-07-29T14:38:04.650Z,32.67
2022-07-29T14:40:31.359Z,33.22
2022-07-29T14:42:57.993Z,32.56
2022-07-29T14:45:24.802Z,33.17
2022-07-29T14:47:51.814Z,32.61
2022-07-29T14:50:31.360Z,32.35
2022-07-29T14:52:59.406Z,32.84
2022-07-29T14:55:26.164Z,32.30
2022-07-29T14:57:55.494Z,32.75
2022-07-29T15:00:27.497Z,31.96
2022-07-29T15:03:02.721Z,32.36
2022-07-29T15:05:31.432Z,32.67
2022-07-29T15:07:58.612Z,31.92
2022-07-29T15:10:27.188Z,32.22
2022-07-29T15:12:54.699Z,33.08
2022-07-29T15:15:21.636Z,32.69
2022-07-29T15:17:48.967Z,32.22
2022-07-29T15:20:15.944Z,32.35
2022-07-29T15:22:43.962Z,32.31
2022-07-29T15:25:11.406Z,32.55
2022-07-29T15:27:40.515Z,32.55
2022-07-29T15:30:08.461Z,31.87
2022-07-29T15:32:36.540Z,31.94
2022-07-29T15:35:04.412Z,31.62
2022-07-29T15:37:48.810Z,31.54
2022-07-29T15:40:16.472Z,31.55
2022-07-29T15:42:43.187Z,31.66
2022-07-29T15:45:10.364Z,31.24
2022-07-29T15:47:37.472Z,31.74
2022-07-29T15:50:04.632Z,32.00
2022-07-29T15:52:31.296Z,31.81
2022-07-29T15:54:58.087Z,31.57
2022-07-29T15:57:25.307Z,31.72
2022-07-29T15:59:52.596Z,31.23
2022-07-29T16:02:19.341Z,31.61
2022-07-29T16:04:46.119Z,31.12
2022-07-29T16:07:12.763Z,31.52
2022-07-29T16:09:41.827Z,31.62
2022-07-29T16:12:14.604Z,31.73
2022-07-29T16:14:45.049Z,31.44
2022-07-29T16:17:14.484Z,31.08
2022-07-29T16:19:43.135Z,30.65
2022-07-29T16:22:10.291Z,31.15
2022-07-29T16:24:37.139Z,31.13
2022-07-29T16:27:03.931Z,30.89
2022-07-29T16:29:30.566Z,30.95
2022-07-29T16:31:57.359Z,31.21
2022-07-29T16:34:24.285Z,31.35
2022-07-29T16:36:51.090Z,31.28
2022-07-29T16:39:17.757Z,31.50
2022-07-29T16:41:44.377Z,31.30
2022-07-29T16:44:11.007Z,31.38
2022-07-29T16:46:39.014Z,31.42
2022-07-29T16:49:08.220Z,31.19
2022-07-29T16:51:34.967Z,30.65
2022-07-29T16:54:01.641Z,30.89
2022-07-29T16:56:28.331Z,31.18
2022-07-29T16:58:57.961Z,30.60
2022-07-29T17:01:24.676Z,30.74
2022-07-29T17:04:06.715Z,30.58
2022-07-29T17:06:35.182Z,30.31
2022-07-29T17:09:04.065Z,30.30
2022-07-29T17:11:52.658Z,30.25
2022-07-29T17:14:17.718Z,30.08
2022-07-29T17:17:03.070Z,30.40
2022-07-29T17:19:35.650Z,30.63
2022-07-29T17:22:11.766Z,30.75
2022-07-29T17:24:41.624Z,30.35
2022-07-29T17:27:09.382Z,30.66
2022-07-29T17:29:36.135Z,30.79
2022-07-29T17:32:03.646Z,30.70
2022-07-29T17:34:30.647Z,30.70
2022-07-29T17:36:57.817Z,30.65
2022-07-29T17:39:24.658Z,30.39
2022-07-29T17:41:51.278Z,30.53
2022-07-29T17:44:18.340Z,30.43
2022-07-29T17:46:45.021Z,30.51
2022-07-29T17:49:11.829Z,30.48
2022-07-29T17:51:38.716Z,30.56
2022-07-29T17:54:05.418Z,30.46
2022-07-29T17:56:32.214Z,30.33
2022-07-29T17:59:01.544Z,30.37
2022-07-29T18:01:28.579Z,30.32
2022-07-29T18:03:59.733Z,30.12
2022-07-29T18:06:27.047Z,29.74
2022-07-29T18:08:53.780Z,29.95
2022-07-29T18:11:20.452Z,29.80
2022-07-29T18:13:47.135Z,29.69
2022-07-29T18:16:14.043Z,29.79
2022-07-29T18:18:40.784Z,29.69
2022-07-29T18:21:07.423Z,29.70
2022-07-29T18:23:34.111Z,29.69
2022-07-29T18:26:00.766Z,29.58
2022-07-29T18:28:28.008Z,29.47
2022-07-29T18:30:54.777Z,29.57
2022-07-29T18:33:22.695Z,29.51
2022-07-29T18:35:51.718Z,29.43
2022-07-29T18:38:18.871Z,29.45
2022-07-29T18:40:46.342Z,29.42
2022-07-29T18:43:13.724Z,29.37
2022-07-29T18:45:42.535Z,29.33
2022-07-29T18:48:13.309Z,29.24
2022-07-29T18:50:41.499Z,29.09
2022-07-29T18:53:08.540Z,29.09
2022-07-29T18:55:35.330Z,29.04
2022-07-29T18:58:02.160Z,29.00
2022-07-29T19:00:28.880Z,28.84
2022-07-29T19:02:56.796Z,28.91
2022-07-29T19:05:23.702Z,28.92
2022-07-29T19:07:50.681Z,28.86
2022-07-29T19:10:17.698Z,28.84
2022-07-29T19:12:44.363Z,28.70
2022-07-29T19:15:11.419Z,28.69
2022-07-29T19:17:39.226Z,28.67
2022-07-29T19:20:07.430Z,28.65
2022-07-29T19:22:34.784Z,28.58
2022-07-29T19:25:02.015Z,28.45
2022-07-29T19:27:28.831Z,28.37
2022-07-29T19:29:59.180Z,28.31
2022-07-29T19:32:26.483Z,28.44
2022-07-29T19:35:12.054Z,27.79
2022-07-29T19:37:38.724Z,27.88
2022-07-29T19:40:06.715Z,27.99
2022-07-29T19:42:33.462Z,27.81
2022-07-29T19:45:00.217Z,27.71
2022-07-29T19:47:26.944Z,27.93
2022-07-29T19:49:53.663Z,28.10
2022-07-29T19:52:20.320Z,28.14
2022-07-29T19:54:47.086Z,27.99
2022-07-29T19:57:14.140Z,28.05
2022-07-29T19:59:41.191Z,28.12
2022-07-29T20:02:10.890Z,27.76
2022-07-29T20:04:37.991Z,27.96
2022-07-29T20:07:05.958Z,28.02
2022-07-29T20:09:32.648Z,27.97
2022-07-29T20:11:59.554Z,27.98
2022-07-29T20:14:26.259Z,28.00
2022-07-29T20:16:55.838Z,28.06
2022-07-29T20:19:22.489Z,27.89
2022-07-29T20:21:50.735Z,27.98
2022-07-29T20:24:21.793Z,27.95
2022-07-29T20:26:49.101Z,27.97
2022-07-29T20:29:16.256Z,28.00
2022-07-29T20:31:43.461Z,27.85
2022-07-29T20:34:10.442Z,27.74
2022-07-29T20:36:37.641Z,27.99
2022-07-29T20:39:04.357Z,27.71
2022-07-29T20:41:31.002Z,27.54
2022-07-29T20:43:57.734Z,27.55
2022-07-29T20:46:24.447Z,27.62
2022-07-29T20:48:51.146Z,27.67
2022-07-29T20:51:17.822Z,27.73
2022-07-29T20:53:44.581Z,27.48
2022-07-29T20:56:12.584Z,27.49
2022-07-29T20:58:40.915Z,27.64
2022-07-29T21:01:08.272Z,27.67
2022-07-29T21:03:35.568Z,27.69
2022-07-29T21:06:02.934Z,27.74
2022-07-29T21:08:29.632Z,27.54
2022-07-29T21:10:56.288Z,27.68
2022-07-29T21:13:23.190Z,27.58
2022-07-29T21:15:51.755Z,27.69
2022-07-29T21:18:32.860Z,27.81
2022-07-29T21:21:04.153Z,27.54
2022-07-29T21:23:31.484Z,27.58
2022-07-29T21:25:58.946Z,27.52
2022-07-29T21:28:40.879Z,27.52
2022-07-29T21:31:13.016Z,27.36
2022-07-29T21:33:41.844Z,27.33
2022-07-29T21:36:46.782Z,27.42
2022-07-29T21:38:57.004Z,27.48
2022-07-29T21:41:23.698Z,27.36
2022-07-29T21:43:50.412Z,26.81
2022-07-29T21:46:18.124Z,26.81
2022-07-29T21:48:44.852Z,26.95
2022-07-29T21:51:11.691Z,26.01
2022-07-29T21:53:38.332Z,26.42
2022-07-29T21:56:06.706Z,26.69
2022-07-29T21:58:37.009Z,26.23
2022-07-29T22:01:03.798Z,26.36
2022-07-29T22:03:30.463Z,26.54
2022-07-29T22:05:57.076Z,26.76
2022-07-29T22:08:23.759Z,26.77
2022-07-29T22:10:50.435Z,26.88
2022-07-29T22:13:17.107Z,26.53
2022-07-29T22:15:47.046Z,26.63
2022-07-29T22:18:20.517Z,26.84
2022-07-29T22:20:48.849Z,26.74
2022-07-29T22:23:15.555Z,26.50
2022-07-29T22:25:42.314Z,26.03
2022-07-29T22:28:08.995Z,25.55
2022-07-29T22:30:35.705Z,25.86
2022-07-29T22:33:02.409Z,26.06
2022-07-29T22:35:29.085Z,26.25
2022-07-29T22:37:55.796Z,26.29
2022-07-29T22:40:22.592Z,26.19
2022-07-29T22:42:57.258Z,26.25
2022-07-29T22:45:24.079Z,26.42
2022-07-29T22:47:55.946Z,26.52
2022-07-29T22:50:24.638Z,26.41
2022-07-29T22:52:51.357Z,26.33
2022-07-29T22:55:18.018Z,26.48
2022-07-29T22:57:44.804Z,26.34
2022-07-29T23:00:12.521Z,26.49
2022-07-29T23:02:40.365Z,26.50
2022-07-29T23:05:08.966Z,26.51
2022-07-29T23:07:35.713Z,26.51
2022-07-29T23:10:02.661Z,26.39
2022-07-29T23:12:29.379Z,26.46
2022-07-29T23:14:56.017Z,26.53
2022-07-29T23:17:23.010Z,26.55
2022-07-29T23:19:49.809Z,26.50
2022-07-29T23:22:16.992Z,26.36
2022-07-29T23:24:45.450Z,26.19
2022-07-29T23:27:12.124Z,26.27
2022-07-29T23:29:38.859Z,26.35
2022-07-29T23:32:05.947Z,26.41
2022-07-29T23:34:32.776Z,26.33
2022-07-29T23:36:59.607Z,26.26
2022-07-29T23:39:26.436Z,26.26
2022-07-29T23:41:53.408Z,26.10
2022-07-29T23:44:20.231Z,26.17
2022-07-29T23:46:46.964Z,26.22
2022-07-29T23:49:14.605Z,26.02
2022-07-29T23:51:41.275Z,25.92
2022-07-29T23:54:07.946Z,26.03
2022-07-29T23:56:34.579Z,25.88
2022-07-29T23:59:01.271Z,25.62
